Canebrake, West Virginia
Current Conditions -  °F | °C
As of 2:55 AM on Tuesday 21 Oct 2014 (Local Time) from KJFZ Reporting Station
Overcast Overcast  
Wind Chill: 54°   Ceiling: 3100
Heat Index: 54°   Visibility: 10mi
Dew Point: 49°   Wind: 7mph
Humidity: 83%   Direction: 250°WSW
Pressure: 29.98"   Gusts: NA
Location:  37.2686°N, 81.6669°W
Report Text: KJFZ 210655Z AUTO 25006KT 10SM BKN031 BKN039 OVC120 12/10 A2998 RMK AO2 T01240095
Loading
Personal Weather Stations






























Interactive Weather Map New forecast layout! Learn more

10-Day Weather Forecast

Advertisements
Track Severe Weather on mobile